DLH221 EDDL-EDDM
Flight info
| Callsign | DLH221 |
|---|---|
| Flight time | 0h 54m |
| Altitude | 35000 |
| Route | DODEN7Z DODEN Y853 BOMBI T104 HAREM/N0399F270 T104 ROKIL ROKIL1B |
| Aircraft | A388/J-SADE2E3FGHIJ3J4J5M1RWXY/LB1D1 |
Departure
| Time | 2026-05-06 00:24 |
|---|---|
| Airport | Düsseldorf Airport (EDDL) |
Arrival
| Time | 2026-05-06 01:18 |
|---|---|
| Airport | Munich Airport (EDDM) |
| Time | Latitude | Longitude | Altitude | Speed | Heading |
|---|---|---|---|---|---|
| 2026-05-05 23:31 | 51.27592 | 6.76282 | 123 ft | 0 kts | 8° |
| 2026-05-06 00:10 | 51.27573 | 6.76279 | 120 ft | 4 kts | 349° |
| 2026-05-06 00:10 | 51.27551 | 6.76296 | 121 ft | 4 kts | 304° |
| 2026-05-06 00:11 | 51.27545 | 6.76332 | 118 ft | 3 kts | 252° |
| 2026-05-06 00:11 | 51.27547 | 6.76345 | 118 ft | 0 kts | 248° |
| 2026-05-06 00:19 | 51.27538 | 6.76309 | 108 ft | 7 kts | 248° |
| 2026-05-06 00:19 | 51.27519 | 6.76215 | 122 ft | 11 kts | 263° |
| 2026-05-06 00:19 | 51.27543 | 6.76117 | 121 ft | 10 kts | 321° |
| 2026-05-06 00:20 | 51.27607 | 6.76052 | 119 ft | 12 kts | 340° |
| 2026-05-06 00:20 | 51.27690 | 6.76031 | 123 ft | 12 kts | 6° |
| 2026-05-06 00:20 | 51.27777 | 6.76044 | 122 ft | 13 kts | 357° |
| 2026-05-06 00:20 | 51.27838 | 6.75983 | 122 ft | 11 kts | 299° |
| 2026-05-06 00:21 | 51.27847 | 6.75865 | 123 ft | 12 kts | 273° |
| 2026-05-06 00:21 | 51.27860 | 6.75722 | 120 ft | 14 kts | 276° |
| 2026-05-06 00:21 | 51.27893 | 6.75588 | 119 ft | 12 kts | 282° |
| 2026-05-06 00:21 | 51.27866 | 6.75473 | 118 ft | 13 kts | 231° |
| 2026-05-06 00:22 | 51.27851 | 6.75357 | 122 ft | 8 kts | 313° |
| 2026-05-06 00:22 | 51.27911 | 6.75298 | 118 ft | 13 kts | 330° |
| 2026-05-06 00:22 | 51.27957 | 6.75261 | 117 ft | 0 kts | 342° |
| 2026-05-06 00:22 | 51.27969 | 6.75261 | 118 ft | 4 kts | 17° |
| 2026-05-06 00:23 | 51.28022 | 6.75328 | 117 ft | 13 kts | 51° |
| 2026-05-06 00:23 | 51.28045 | 6.75377 | 117 ft | 0 kts | 52° |
| 2026-05-06 00:23 | 51.28087 | 6.75462 | 116 ft | 33 kts | 53° |
| 2026-05-06 00:24 | 51.28365 | 6.76038 | 119 ft | 96 kts | 52° |
| 2026-05-06 00:24 | 51.28847 | 6.77071 | 119 ft | 133 kts | 54° |
| 2026-05-06 00:24 | 51.29488 | 6.78323 | 359 ft | 147 kts | 42° |
| 2026-05-06 00:24 | 51.30192 | 6.79545 | 830 ft | 153 kts | 44° |
| 2026-05-06 00:25 | 51.30841 | 6.80863 | 1364 ft | 150 kts | 49° |
| 2026-05-06 00:25 | 51.31459 | 6.82206 | 1896 ft | 149 kts | 48° |
| 2026-05-06 00:25 | 51.32118 | 6.83577 | 2108 ft | 170 kts | 52° |
| 2026-05-06 00:25 | 51.32846 | 6.85238 | 2412 ft | 196 kts | 54° |
| 2026-05-06 00:26 | 51.33675 | 6.87144 | 2883 ft | 219 kts | 54° |
| 2026-05-06 00:26 | 51.34584 | 6.89256 | 3387 ft | 244 kts | 57° |
| 2026-05-06 00:26 | 51.35241 | 6.91874 | 3949 ft | 264 kts | 82° |
| 2026-05-06 00:26 | 51.35125 | 6.94814 | 4854 ft | 267 kts | 101° |
| 2026-05-06 00:27 | 51.34794 | 6.97776 | 5753 ft | 272 kts | 101° |
| 2026-05-06 00:27 | 51.34486 | 7.00752 | 6682 ft | 276 kts | 101° |
| 2026-05-06 00:27 | 51.34178 | 7.03807 | 7588 ft | 279 kts | 102° |
| 2026-05-06 00:27 | 51.33868 | 7.06883 | 8540 ft | 281 kts | 102° |
| 2026-05-06 00:28 | 51.33556 | 7.09997 | 9426 ft | 286 kts | 102° |
| 2026-05-06 00:28 | 51.33236 | 7.13165 | 10244 ft | 292 kts | 102° |
| 2026-05-06 00:28 | 51.32732 | 7.16432 | 10537 ft | 312 kts | 114° |
| 2026-05-06 00:28 | 51.31639 | 7.19476 | 10746 ft | 330 kts | 130° |
| 2026-05-06 00:29 | 51.29997 | 7.22125 | 11368 ft | 335 kts | 138° |
| 2026-05-06 00:29 | 51.28309 | 7.24737 | 12126 ft | 339 kts | 137° |
| 2026-05-06 00:29 | 51.26635 | 7.27380 | 12960 ft | 342 kts | 137° |
| 2026-05-06 00:29 | 51.24929 | 7.30086 | 13721 ft | 349 kts | 137° |
| 2026-05-06 00:30 | 51.23188 | 7.32843 | 14523 ft | 352 kts | 137° |
| 2026-05-06 00:30 | 51.21428 | 7.35622 | 15215 ft | 356 kts | 137° |
| 2026-05-06 00:30 | 51.19682 | 7.38372 | 15884 ft | 359 kts | 137° |
| 2026-05-06 00:30 | 51.17883 | 7.41201 | 16535 ft | 363 kts | 137° |
| 2026-05-06 00:31 | 51.16067 | 7.44051 | 17159 ft | 367 kts | 137° |
| 2026-05-06 00:31 | 51.14853 | 7.45950 | 17589 ft | 369 kts | 137° |
| 2026-05-06 00:31 | 51.12383 | 7.49742 | 18385 ft | 374 kts | 137° |
| 2026-05-06 00:31 | 51.10497 | 7.52612 | 18962 ft | 376 kts | 138° |
| 2026-05-06 00:32 | 51.09238 | 7.54526 | 19317 ft | 378 kts | 138° |
| 2026-05-06 00:32 | 51.06694 | 7.58399 | 20064 ft | 381 kts | 138° |
| 2026-05-06 00:32 | 51.05421 | 7.60335 | 20400 ft | 383 kts | 138° |
| 2026-05-06 00:32 | 51.03485 | 7.63282 | 20926 ft | 386 kts | 138° |
| 2026-05-06 00:33 | 51.00895 | 7.67217 | 21646 ft | 390 kts | 138° |
| 2026-05-06 00:33 | 50.99566 | 7.69235 | 22007 ft | 391 kts | 138° |
| 2026-05-06 00:33 | 50.97597 | 7.72189 | 22514 ft | 394 kts | 140° |
| 2026-05-06 00:33 | 50.94686 | 7.75648 | 23208 ft | 395 kts | 149° |
| 2026-05-06 00:34 | 50.93118 | 7.77169 | 23522 ft | 397 kts | 150° |
| 2026-05-06 00:34 | 50.90754 | 7.79473 | 23977 ft | 399 kts | 150° |
| 2026-05-06 00:34 | 50.88382 | 7.81801 | 24490 ft | 401 kts | 149° |
| 2026-05-06 00:34 | 50.86023 | 7.84117 | 24767 ft | 401 kts | 149° |
| 2026-05-06 00:35 | 50.83635 | 7.86466 | 25370 ft | 401 kts | 149° |
| 2026-05-06 00:35 | 50.81282 | 7.88779 | 25897 ft | 403 kts | 149° |
| 2026-05-06 00:35 | 50.78880 | 7.91135 | 26321 ft | 407 kts | 149° |
| 2026-05-06 00:35 | 50.76460 | 7.93504 | 26850 ft | 409 kts | 149° |
| 2026-05-06 00:36 | 50.74055 | 7.95855 | 27382 ft | 412 kts | 150° |
| 2026-05-06 00:36 | 50.71600 | 7.98252 | 27880 ft | 415 kts | 150° |
| 2026-05-06 00:36 | 50.69145 | 8.00646 | 28366 ft | 419 kts | 150° |
| 2026-05-06 00:36 | 50.66649 | 8.03076 | 28937 ft | 421 kts | 150° |
| 2026-05-06 00:37 | 50.64135 | 8.05520 | 29492 ft | 424 kts | 150° |
| 2026-05-06 00:37 | 50.61614 | 8.07971 | 29986 ft | 427 kts | 150° |
| 2026-05-06 00:37 | 50.59187 | 8.10640 | 30475 ft | 432 kts | 144° |
| 2026-05-06 00:37 | 50.56864 | 8.13694 | 31002 ft | 435 kts | 142° |
| 2026-05-06 00:38 | 50.54539 | 8.16772 | 31523 ft | 437 kts | 142° |
| 2026-05-06 00:38 | 50.52223 | 8.19821 | 31988 ft | 440 kts | 142° |
| 2026-05-06 00:38 | 50.49860 | 8.22920 | 32456 ft | 442 kts | 143° |
| 2026-05-06 00:38 | 50.47485 | 8.26025 | 32927 ft | 445 kts | 143° |
| 2026-05-06 00:39 | 50.45099 | 8.29140 | 33395 ft | 447 kts | 143° |
| 2026-05-06 00:39 | 50.42725 | 8.32234 | 33957 ft | 448 kts | 143° |
| 2026-05-06 00:39 | 50.40295 | 8.35396 | 34191 ft | 457 kts | 143° |
| 2026-05-06 00:39 | 50.37839 | 8.38589 | 34647 ft | 458 kts | 143° |
| 2026-05-06 00:40 | 50.35360 | 8.41807 | 34812 ft | 465 kts | 143° |
| 2026-05-06 00:40 | 50.30456 | 8.48165 | 34811 ft | 459 kts | 143° |
| 2026-05-06 00:41 | 50.25523 | 8.54541 | 34815 ft | 460 kts | 143° |
| 2026-05-06 00:41 | 50.20569 | 8.60924 | 34820 ft | 460 kts | 143° |
| 2026-05-06 00:42 | 50.15649 | 8.67248 | 34822 ft | 459 kts | 143° |
| 2026-05-06 00:42 | 50.10752 | 8.73523 | 34822 ft | 459 kts | 143° |
| 2026-05-06 00:43 | 50.05808 | 8.79841 | 34828 ft | 458 kts | 143° |
| 2026-05-06 00:43 | 50.01041 | 8.86384 | 34822 ft | 460 kts | 140° |
| 2026-05-06 00:44 | 49.96336 | 8.93178 | 34825 ft | 460 kts | 140° |
| 2026-05-06 00:44 | 49.91707 | 8.99748 | 34822 ft | 460 kts | 140° |
| 2026-05-06 00:45 | 49.86967 | 9.06416 | 34824 ft | 460 kts | 141° |
| 2026-05-06 00:45 | 49.82225 | 9.13060 | 34831 ft | 459 kts | 140° |
| 2026-05-06 00:46 | 49.77486 | 9.19684 | 34826 ft | 459 kts | 140° |
| 2026-05-06 00:46 | 49.72754 | 9.26281 | 34827 ft | 458 kts | 140° |
| 2026-05-06 00:47 | 49.68037 | 9.32839 | 34832 ft | 459 kts | 140° |
| 2026-05-06 00:47 | 49.63283 | 9.39430 | 34837 ft | 459 kts | 140° |
| 2026-05-06 00:48 | 49.58876 | 9.46584 | 34803 ft | 461 kts | 134° |
| 2026-05-06 00:48 | 49.54665 | 9.54025 | 34812 ft | 460 kts | 134° |
| 2026-05-06 00:49 | 49.50467 | 9.61386 | 34811 ft | 460 kts | 134° |
| 2026-05-06 00:49 | 49.46235 | 9.68774 | 34811 ft | 460 kts | 134° |
| 2026-05-06 00:50 | 49.42000 | 9.76144 | 34811 ft | 460 kts | 134° |
| 2026-05-06 00:50 | 49.37760 | 9.83506 | 34812 ft | 461 kts | 134° |
| 2026-05-06 00:51 | 49.33501 | 9.90864 | 34806 ft | 462 kts | 134° |
| 2026-05-06 00:51 | 49.29218 | 9.98235 | 34797 ft | 462 kts | 134° |
| 2026-05-06 00:51 | 49.27099 | 10.01879 | 34641 ft | 455 kts | 134° |
| 2026-05-06 00:52 | 49.24998 | 10.05486 | 34136 ft | 452 kts | 134° |
| 2026-05-06 00:52 | 49.22917 | 10.09053 | 33626 ft | 445 kts | 134° |
| 2026-05-06 00:52 | 49.20864 | 10.12568 | 32720 ft | 440 kts | 134° |
| 2026-05-06 00:52 | 49.18830 | 10.16045 | 31889 ft | 436 kts | 134° |
| 2026-05-06 00:53 | 49.16824 | 10.19473 | 31066 ft | 431 kts | 134° |
| 2026-05-06 00:53 | 49.14835 | 10.22871 | 30316 ft | 426 kts | 134° |
| 2026-05-06 00:53 | 49.12877 | 10.26177 | 29682 ft | 423 kts | 135° |
| 2026-05-06 00:53 | 49.10863 | 10.29432 | 29016 ft | 419 kts | 136° |
| 2026-05-06 00:54 | 49.08858 | 10.32623 | 28377 ft | 415 kts | 136° |
| 2026-05-06 00:54 | 49.06841 | 10.35833 | 27728 ft | 412 kts | 136° |
| 2026-05-06 00:54 | 49.04891 | 10.38945 | 27115 ft | 409 kts | 136° |
| 2026-05-06 00:54 | 49.02944 | 10.42061 | 26729 ft | 404 kts | 136° |
| 2026-05-06 00:55 | 49.01008 | 10.45160 | 26466 ft | 405 kts | 136° |
| 2026-05-06 00:55 | 48.99059 | 10.48273 | 26214 ft | 405 kts | 136° |
| 2026-05-06 00:55 | 48.97114 | 10.51375 | 25965 ft | 405 kts | 136° |
| 2026-05-06 00:55 | 48.95175 | 10.54462 | 25491 ft | 404 kts | 136° |
| 2026-05-06 00:56 | 48.93236 | 10.57546 | 24925 ft | 403 kts | 136° |
| 2026-05-06 00:56 | 48.91307 | 10.60616 | 24364 ft | 399 kts | 136° |
| 2026-05-06 00:56 | 48.89402 | 10.63643 | 23803 ft | 396 kts | 136° |
| 2026-05-06 00:56 | 48.87503 | 10.66657 | 23222 ft | 394 kts | 136° |
| 2026-05-06 00:57 | 48.85608 | 10.69661 | 22633 ft | 391 kts | 136° |
| 2026-05-06 00:57 | 48.83737 | 10.72625 | 22084 ft | 387 kts | 136° |
| 2026-05-06 00:57 | 48.81877 | 10.75567 | 21513 ft | 383 kts | 136° |
| 2026-05-06 00:57 | 48.80041 | 10.78466 | 20957 ft | 380 kts | 136° |
| 2026-05-06 00:58 | 48.78209 | 10.81346 | 20391 ft | 377 kts | 136° |
| 2026-05-06 00:58 | 48.76415 | 10.84157 | 19859 ft | 374 kts | 137° |
| 2026-05-06 00:58 | 48.74612 | 10.86981 | 19306 ft | 372 kts | 137° |
| 2026-05-06 00:58 | 48.72819 | 10.89787 | 18745 ft | 369 kts | 137° |
| 2026-05-06 00:59 | 48.71034 | 10.92578 | 18203 ft | 368 kts | 137° |
| 2026-05-06 00:59 | 48.69251 | 10.95362 | 17604 ft | 366 kts | 137° |
| 2026-05-06 00:59 | 48.67494 | 10.98103 | 17078 ft | 361 kts | 137° |
| 2026-05-06 00:59 | 48.65750 | 11.00818 | 16533 ft | 358 kts | 137° |
| 2026-05-06 01:00 | 48.64026 | 11.03499 | 16004 ft | 354 kts | 137° |
| 2026-05-06 01:00 | 48.62314 | 11.06158 | 15476 ft | 351 kts | 137° |
| 2026-05-06 01:00 | 48.60605 | 11.08810 | 14952 ft | 349 kts | 137° |
| 2026-05-06 01:00 | 48.58912 | 11.11430 | 14429 ft | 346 kts | 139° |
| 2026-05-06 01:01 | 48.57113 | 11.13796 | 13929 ft | 341 kts | 146° |
| 2026-05-06 01:01 | 48.55182 | 11.15774 | 13394 ft | 338 kts | 150° |
| 2026-05-06 01:01 | 48.53368 | 11.18029 | 12880 ft | 340 kts | 133° |
| 2026-05-06 01:01 | 48.52212 | 11.21154 | 12548 ft | 345 kts | 110° |
| 2026-05-06 01:02 | 48.51907 | 11.24773 | 12353 ft | 351 kts | 89° |
| 2026-05-06 01:02 | 48.52311 | 11.28375 | 12025 ft | 353 kts | 79° |
| 2026-05-06 01:02 | 48.52911 | 11.31977 | 11669 ft | 350 kts | 77° |
| 2026-05-06 01:02 | 48.53513 | 11.35536 | 11348 ft | 346 kts | 78° |
| 2026-05-06 01:03 | 48.54062 | 11.38991 | 11199 ft | 337 kts | 79° |
| 2026-05-06 01:03 | 48.54575 | 11.42399 | 11062 ft | 324 kts | 79° |
| 2026-05-06 01:03 | 48.55043 | 11.45631 | 10932 ft | 312 kts | 80° |
| 2026-05-06 01:03 | 48.55496 | 11.48823 | 10441 ft | 311 kts | 80° |
| 2026-05-06 01:04 | 48.55948 | 11.52039 | 9862 ft | 312 kts | 81° |
| 2026-05-06 01:04 | 48.56336 | 11.55263 | 9408 ft | 310 kts | 84° |
| 2026-05-06 01:04 | 48.56638 | 11.58463 | 8877 ft | 311 kts | 84° |
| 2026-05-06 01:04 | 48.56945 | 11.61712 | 8371 ft | 312 kts | 84° |
| 2026-05-06 01:05 | 48.57252 | 11.64948 | 7960 ft | 310 kts | 84° |
| 2026-05-06 01:05 | 48.57504 | 11.68102 | 7755 ft | 300 kts | 87° |
| 2026-05-06 01:05 | 48.57658 | 11.71236 | 7632 ft | 294 kts | 88° |
| 2026-05-06 01:05 | 48.57729 | 11.74311 | 7532 ft | 291 kts | 92° |
| 2026-05-06 01:06 | 48.57734 | 11.77244 | 7433 ft | 288 kts | 92° |
| 2026-05-06 01:06 | 48.57733 | 11.80295 | 7339 ft | 289 kts | 92° |
| 2026-05-06 01:06 | 48.57728 | 11.83356 | 7234 ft | 291 kts | 94° |
| 2026-05-06 01:06 | 48.57620 | 11.86358 | 7132 ft | 287 kts | 96° |
| 2026-05-06 01:07 | 48.57473 | 11.89366 | 7030 ft | 288 kts | 96° |
| 2026-05-06 01:07 | 48.57329 | 11.92390 | 6903 ft | 290 kts | 96° |
| 2026-05-06 01:07 | 48.57191 | 11.95462 | 6719 ft | 288 kts | 96° |
| 2026-05-06 01:07 | 48.57038 | 11.98475 | 6549 ft | 285 kts | 96° |
| 2026-05-06 01:08 | 48.56885 | 12.01427 | 6386 ft | 285 kts | 96° |
| 2026-05-06 01:08 | 48.56730 | 12.04428 | 6205 ft | 285 kts | 96° |
| 2026-05-06 01:08 | 48.56572 | 12.07378 | 6030 ft | 285 kts | 96° |
| 2026-05-06 01:08 | 48.56400 | 12.10346 | 5883 ft | 282 kts | 96° |
| 2026-05-06 01:09 | 48.56222 | 12.13323 | 5764 ft | 283 kts | 96° |
| 2026-05-06 01:09 | 48.56047 | 12.16268 | 5762 ft | 284 kts | 96° |
| 2026-05-06 01:09 | 48.55854 | 12.19238 | 5758 ft | 282 kts | 100° |
| 2026-05-06 01:09 | 48.55162 | 12.21980 | 5738 ft | 279 kts | 127° |
| 2026-05-06 01:10 | 48.53777 | 12.23919 | 5749 ft | 273 kts | 153° |
| 2026-05-06 01:10 | 48.51971 | 12.24697 | 5747 ft | 269 kts | 179° |
| 2026-05-06 01:10 | 48.50117 | 12.24718 | 5767 ft | 267 kts | 181° |
| 2026-05-06 01:10 | 48.48244 | 12.24760 | 5682 ft | 268 kts | 181° |
| 2026-05-06 01:11 | 48.46392 | 12.24758 | 5535 ft | 270 kts | 183° |
| 2026-05-06 01:11 | 48.44510 | 12.24673 | 5375 ft | 270 kts | 184° |
| 2026-05-06 01:11 | 48.42634 | 12.24614 | 5205 ft | 270 kts | 183° |
| 2026-05-06 01:11 | 48.40746 | 12.24543 | 5022 ft | 272 kts | 184° |
| 2026-05-06 01:12 | 48.38863 | 12.24391 | 4846 ft | 269 kts | 194° |
| 2026-05-06 01:12 | 48.37253 | 12.23132 | 4760 ft | 264 kts | 227° |
| 2026-05-06 01:12 | 48.36414 | 12.20746 | 4758 ft | 258 kts | 262° |
| 2026-05-06 01:12 | 48.36561 | 12.18064 | 4780 ft | 257 kts | 283° |
| 2026-05-06 01:13 | 48.36976 | 12.15532 | 4780 ft | 247 kts | 284° |
| 2026-05-06 01:13 | 48.37364 | 12.13070 | 4777 ft | 234 kts | 283° |
| 2026-05-06 01:13 | 48.37702 | 12.10733 | 4786 ft | 221 kts | 282° |
| 2026-05-06 01:13 | 48.37992 | 12.08545 | 4794 ft | 208 kts | 281° |
| 2026-05-06 01:14 | 48.38298 | 12.04476 | 4369 ft | 185 kts | 271° |
| 2026-05-06 01:14 | 48.38226 | 12.02551 | 4134 ft | 183 kts | 266° |
| 2026-05-06 01:14 | 48.38100 | 12.00645 | 3889 ft | 184 kts | 266° |
| 2026-05-06 01:15 | 48.37958 | 11.98759 | 3646 ft | 180 kts | 266° |
| 2026-05-06 01:15 | 48.37822 | 11.96962 | 3423 ft | 164 kts | 266° |
| 2026-05-06 01:15 | 48.37695 | 11.95284 | 3222 ft | 159 kts | 266° |
| 2026-05-06 01:15 | 48.37571 | 11.93709 | 3014 ft | 142 kts | 267° |
| 2026-05-06 01:16 | 48.37461 | 11.92254 | 2819 ft | 139 kts | 268° |
| 2026-05-06 01:16 | 48.37355 | 11.90849 | 2648 ft | 135 kts | 267° |
| 2026-05-06 01:16 | 48.37245 | 11.89439 | 2468 ft | 136 kts | 269° |
| 2026-05-06 01:16 | 48.37137 | 11.88002 | 2273 ft | 142 kts | 265° |
| 2026-05-06 01:17 | 48.37019 | 11.86527 | 2084 ft | 140 kts | 264° |
| 2026-05-06 01:17 | 48.36907 | 11.85058 | 1882 ft | 143 kts | 264° |
| 2026-05-06 01:17 | 48.36804 | 11.83563 | 1707 ft | 144 kts | 262° |
| 2026-05-06 01:17 | 48.36685 | 11.82057 | 1511 ft | 147 kts | 261° |
| 2026-05-06 01:18 | 48.36570 | 11.80642 | 1466 ft | 116 kts | 263° |
| 2026-05-06 01:18 | 48.36502 | 11.79626 | 1461 ft | 83 kts | 264° |
| 2026-05-06 01:18 | 48.36447 | 11.78940 | 1467 ft | 54 kts | 263° |
| 2026-05-06 01:18 | 48.36410 | 11.78418 | 1460 ft | 47 kts | 262° |
| 2026-05-06 01:19 | 48.36302 | 11.78002 | 1458 ft | 40 kts | 237° |
| 2026-05-06 01:19 | 48.36209 | 11.77834 | 1460 ft | 3 kts | 231° |